createdAt,value
2018-05-18T00:01:12.435Z,60.33
2018-05-18T00:03:39.999Z,60.67
2018-05-18T00:06:07.573Z,59.92
2018-05-18T00:08:35.920Z,58.57
2018-05-18T00:11:04.457Z,60.83
2018-05-18T00:13:31.974Z,61.33
2018-05-18T00:15:59.506Z,59.92
2018-05-18T00:18:27.075Z,58.53
2018-05-18T00:20:55.388Z,61.03
2018-05-18T00:23:22.910Z,58.73
2018-05-18T00:25:51.233Z,59.40
2018-05-18T00:28:18.757Z,57.73
2018-05-18T00:30:47.040Z,58.10
2018-05-18T00:33:17.075Z,57.70
2018-05-18T00:35:44.600Z,59.00
2018-05-18T00:38:14.037Z,59.47
2018-05-18T00:40:41.629Z,59.03
2018-05-18T00:43:09.133Z,57.33
2018-05-18T00:45:36.673Z,59.77
2018-05-18T00:48:05.005Z,58.47
2018-05-18T00:50:32.523Z,59.03
2018-05-18T00:53:00.039Z,59.83
2018-05-18T00:55:40.045Z,56.97
2018-05-18T00:58:07.567Z,60.97
2018-05-18T01:00:35.107Z,59.67
2018-05-18T01:03:02.655Z,58.87
2018-05-18T01:05:30.221Z,56.03
2018-05-18T01:07:57.767Z,57.63
2018-05-18T01:10:25.322Z,58.10
2018-05-18T01:12:53.151Z,55.20
2018-05-18T01:15:20.683Z,57.77
2018-05-18T01:17:49.440Z,56.03
2018-05-18T01:20:16.976Z,56.87
2018-05-18T01:22:44.515Z,55.90
2018-05-18T01:25:12.067Z,53.07
2018-05-18T01:27:39.597Z,55.87
2018-05-18T01:30:07.132Z,50.87
2018-05-18T01:32:34.689Z,50.83
2018-05-18T01:35:02.984Z,52.67
2018-05-18T01:37:30.508Z,53.58
2018-05-18T01:39:58.634Z,48.00
2018-05-18T01:42:26.941Z,50.27
2018-05-18T01:44:54.462Z,50.08
2018-05-18T01:47:22.006Z,47.97
2018-05-18T01:49:49.533Z,45.28
2018-05-18T01:52:17.088Z,48.50
2018-05-18T01:54:44.649Z,49.03
2018-05-18T01:57:12.170Z,48.60
2018-05-18T01:59:39.699Z,44.50
2018-05-18T02:02:07.955Z,47.60
2018-05-18T02:04:35.522Z,44.83
2018-05-18T02:07:03.111Z,43.13
2018-05-18T02:09:31.455Z,43.28
2018-05-18T02:11:58.969Z,44.37
2018-05-18T02:14:26.771Z,41.65
2018-05-18T02:16:54.328Z,41.80
2018-05-18T02:19:21.848Z,42.63
2018-05-18T02:21:50.128Z,42.97
2018-05-18T02:24:18.131Z,40.53
2018-05-18T02:26:45.655Z,42.10
2018-05-18T02:29:26.343Z,42.40
2018-05-18T02:33:51.042Z,42.63
2018-05-18T02:36:18.615Z,44.65
2018-05-18T02:38:46.146Z,43.80
2018-05-18T02:41:15.538Z,41.42
2018-05-18T02:43:44.581Z,44.70
2018-05-18T02:46:12.100Z,42.13
2018-05-18T02:48:39.626Z,43.70
2018-05-18T02:51:07.183Z,45.10
2018-05-18T02:53:34.703Z,43.00
2018-05-18T02:56:02.232Z,43.20
2018-05-18T02:58:29.778Z,47.05
2018-05-18T03:00:58.071Z,48.20
2018-05-18T03:03:25.594Z,44.83
2018-05-18T03:05:53.728Z,47.00
2018-05-18T03:08:21.255Z,47.08
2018-05-18T03:10:48.788Z,46.95
2018-05-18T03:13:16.481Z,48.90
2018-05-18T03:15:44.143Z,45.93
2018-05-18T03:18:11.675Z,52.47
2018-05-18T03:20:40.011Z,53.50
2018-05-18T03:23:07.553Z,50.47
2018-05-18T03:25:35.100Z,52.23
2018-05-18T03:28:03.392Z,51.07
2018-05-18T03:30:30.963Z,54.53
2018-05-18T03:32:58.484Z,55.65
2018-05-18T03:35:26.046Z,56.27
2018-05-18T03:37:53.575Z,56.55
2018-05-18T03:40:21.899Z,55.53
2018-05-18T03:42:49.439Z,58.05
2018-05-18T03:45:16.962Z,56.43
2018-05-18T03:47:44.498Z,52.50
2018-05-18T03:50:12.650Z,54.97
2018-05-18T03:52:40.178Z,57.50
2018-05-18T03:55:08.467Z,59.23
2018-05-18T03:57:36.029Z,53.50
2018-05-18T04:00:04.492Z,56.83
2018-05-18T04:02:44.646Z,53.77
2018-05-18T04:05:23.878Z,55.77
2018-05-18T04:08:04.579Z,54.23
2018-05-18T04:10:32.147Z,49.80
2018-05-18T04:12:59.675Z,52.20
2018-05-18T04:15:27.250Z,49.50
2018-05-18T04:17:55.206Z,52.50
2018-05-18T04:20:22.755Z,51.57
2018-05-18T04:22:51.115Z,51.97
2018-05-18T04:25:18.648Z,48.10
2018-05-18T04:27:46.172Z,54.23
2018-05-18T04:30:25.157Z,54.33
2018-05-18T04:32:52.687Z,53.00
2018-05-18T04:35:20.215Z,54.08
2018-05-18T04:37:47.794Z,53.60
2018-05-18T04:40:16.525Z,53.27
2018-05-18T04:42:44.063Z,51.40
2018-05-18T04:45:11.701Z,51.87
2018-05-18T04:47:39.230Z,53.40
2018-05-18T04:50:06.752Z,54.37
2018-05-18T04:52:34.331Z,50.80
2018-05-18T04:55:02.644Z,48.47
2018-05-18T04:57:30.268Z,49.47
2018-05-18T04:59:57.837Z,50.22
2018-05-18T05:02:25.356Z,49.73
2018-05-18T05:04:52.895Z,48.73
2018-05-18T05:07:20.463Z,49.03
2018-05-18T05:09:48.024Z,49.70
2018-05-18T05:12:16.427Z,46.25
2018-05-18T05:14:44.668Z,46.80
2018-05-18T05:17:12.205Z,44.40
2018-05-18T05:19:39.761Z,43.10
2018-05-18T05:22:07.313Z,44.47
2018-05-18T05:24:34.849Z,42.57
2018-05-18T05:27:03.162Z,41.70
2018-05-18T05:29:30.744Z,44.40
2018-05-18T05:31:59.095Z,41.80
2018-05-18T05:34:26.631Z,42.33
2018-05-18T05:36:55.286Z,40.30
2018-05-18T05:39:22.902Z,40.80
2018-05-18T05:41:50.674Z,40.80
2018-05-18T05:44:18.290Z,38.80
2018-05-18T05:46:45.846Z,39.57
2018-05-18T05:49:14.886Z,37.38
2018-05-18T05:51:42.480Z,36.05
2018-05-18T05:54:10.878Z,37.47
2018-05-18T05:56:39.180Z,36.10
2018-05-18T05:59:07.404Z,36.30
2018-05-18T06:01:34.943Z,35.73
2018-05-18T06:04:02.459Z,35.57
2018-05-18T06:06:31.983Z,35.20
2018-05-18T06:08:59.511Z,36.90
2018-05-18T06:11:27.871Z,35.80
2018-05-18T06:13:55.459Z,37.27
2018-05-18T06:16:23.757Z,35.95
2018-05-18T06:33:17.479Z,34.10
2018-05-18T06:35:45.007Z,32.83
2018-05-18T06:38:12.519Z,30.33
2018-05-18T06:40:40.079Z,31.67
2018-05-18T06:43:08.372Z,32.23
2018-05-18T06:45:35.900Z,29.80
2018-05-18T06:48:03.497Z,30.30
2018-05-18T06:50:31.103Z,30.90
2018-05-18T06:52:59.406Z,32.60
2018-05-18T06:55:28.056Z,30.93
2018-05-18T06:57:55.598Z,32.92
2018-05-18T07:00:23.130Z,31.90
2018-05-18T07:02:50.709Z,31.00
2018-05-18T07:05:18.257Z,30.37
2018-05-18T07:07:45.783Z,30.60
2018-05-18T07:10:15.011Z,28.95
2018-05-18T07:12:42.652Z,29.10
2018-05-18T07:15:10.200Z,30.70
2018-05-18T07:17:38.245Z,29.33
2018-05-18T07:20:05.784Z,29.63
2018-05-18T07:22:33.311Z,30.85
2018-05-18T07:25:00.905Z,28.83
2018-05-18T07:27:28.460Z,29.43
2018-05-18T07:29:55.994Z,27.37
2018-05-18T07:32:23.547Z,25.00
2018-05-18T07:34:51.114Z,25.50
2018-05-18T07:37:18.631Z,27.45
2018-05-18T07:39:47.280Z,24.73
2018-05-18T07:42:16.388Z,26.10
2018-05-18T07:44:43.932Z,25.20
2018-05-18T07:47:11.496Z,25.00
2018-05-18T07:49:39.088Z,22.90
2018-05-18T07:52:06.618Z,23.07
2018-05-18T07:54:34.338Z,22.70
2018-05-18T07:57:01.884Z,22.10
2018-05-18T07:59:29.488Z,21.10
2018-05-18T08:01:57.435Z,23.93
2018-05-18T08:04:24.971Z,24.00
2018-05-18T08:06:52.968Z,19.73
2018-05-18T08:09:20.695Z,21.44
2018-05-18T08:11:48.239Z,19.17
2018-05-18T08:14:16.588Z,20.60
2018-05-18T08:16:44.139Z,20.27
2018-05-18T08:19:12.112Z,18.07
2018-05-18T08:21:39.729Z,18.87
2018-05-18T08:24:07.500Z,19.77
2018-05-18T08:26:35.036Z,18.77
2018-05-18T08:29:14.317Z,20.50
2018-05-18T08:31:41.850Z,19.87
2018-05-18T08:34:09.372Z,17.97
2018-05-18T08:36:37.689Z,19.20
2018-05-18T08:39:05.223Z,18.50
2018-05-18T08:41:32.754Z,17.37
2018-05-18T08:44:00.798Z,18.53
2018-05-18T08:46:28.315Z,20.27
2018-05-18T08:48:55.848Z,21.53
2018-05-18T08:53:58.083Z,20.10
2018-05-18T08:56:25.647Z,17.63
2018-05-18T08:58:53.178Z,17.20
2018-05-18T09:01:20.727Z,18.80
2018-05-18T09:03:49.362Z,19.90
2018-05-18T09:06:16.883Z,20.00
2018-05-18T09:08:44.821Z,20.47
2018-05-18T09:11:12.320Z,20.13
2018-05-18T09:13:39.850Z,19.23
2018-05-18T09:16:08.985Z,19.40
2018-05-18T09:18:36.542Z,18.07
2018-05-18T09:21:04.827Z,17.40
2018-05-18T09:23:32.589Z,17.97
2018-05-18T09:26:01.253Z,16.70
2018-05-18T09:28:28.775Z,18.33
2018-05-18T09:30:57.067Z,18.10
2018-05-18T09:33:25.390Z,17.30
2018-05-18T09:35:52.914Z,18.00
2018-05-18T09:38:22.304Z,16.92
2018-05-18T09:40:50.630Z,18.23
2018-05-18T09:43:18.581Z,18.87
2018-05-18T09:45:46.166Z,19.10
2018-05-18T09:48:15.282Z,18.80
2018-05-18T09:50:42.828Z,19.40
2018-05-18T09:53:10.368Z,16.77
2018-05-18T09:55:38.016Z,17.60
2018-05-18T09:58:05.597Z,18.73
2018-05-18T10:00:33.122Z,16.62
2018-05-18T10:03:00.744Z,17.00
2018-05-18T10:05:29.056Z,17.17
2018-05-18T10:07:56.580Z,19.90
2018-05-18T10:10:25.109Z,18.37
2018-05-18T10:12:52.641Z,20.73
2018-05-18T10:15:20.184Z,19.45
2018-05-18T10:17:48.510Z,20.00
2018-05-18T10:20:17.888Z,20.64
2018-05-18T10:22:45.487Z,20.20
2018-05-18T10:25:14.679Z,18.70
2018-05-18T10:27:42.207Z,20.03
2018-05-18T10:30:09.727Z,20.40
2018-05-18T10:32:37.427Z,19.30
2018-05-18T10:35:05.017Z,19.90
2018-05-18T10:37:32.559Z,20.20
2018-05-18T10:40:00.387Z,21.97
2018-05-18T10:42:28.702Z,20.75
2018-05-18T10:44:56.248Z,18.63
2018-05-18T10:47:24.039Z,20.47
2018-05-18T10:49:51.585Z,19.83
2018-05-18T10:52:19.181Z,18.73
2018-05-18T10:54:47.366Z,18.13
2018-05-18T10:57:16.309Z,15.47
2018-05-18T10:59:43.842Z,16.90
2018-05-18T11:02:11.555Z,17.97
2018-05-18T11:04:39.070Z,15.30
2018-05-18T11:07:06.638Z,15.85
2018-05-18T11:09:34.258Z,15.70
2018-05-18T11:12:02.563Z,16.60
2018-05-18T11:14:30.106Z,14.87
2018-05-18T11:16:58.513Z,17.60
2018-05-18T11:19:26.115Z,18.97
2018-05-18T11:21:53.666Z,17.40
2018-05-18T11:24:21.224Z,19.40
2018-05-18T11:26:48.771Z,18.60
2018-05-18T11:29:16.488Z,19.50
2018-05-18T11:31:44.736Z,17.57
2018-05-18T11:34:12.322Z,17.93
2018-05-18T11:36:39.854Z,18.10
2018-05-18T11:39:07.924Z,16.80
2018-05-18T11:41:35.899Z,15.53
2018-05-18T11:44:03.472Z,16.62
2018-05-18T11:46:31.799Z,16.80
2018-05-18T11:48:59.329Z,14.93
2018-05-18T11:51:26.872Z,17.10
2018-05-18T11:53:54.427Z,16.30
2018-05-18T11:56:21.961Z,17.13
2018-05-18T11:58:49.511Z,16.73
2018-05-18T12:01:17.717Z,16.63
2018-05-18T12:03:45.994Z,18.00
2018-05-18T12:06:15.422Z,19.67
2018-05-18T12:08:43.071Z,20.80
2018-05-18T12:11:10.576Z,20.23
2018-05-18T12:13:38.139Z,18.70
2018-05-18T12:16:05.705Z,18.00
2018-05-18T12:18:33.283Z,17.62
2018-05-18T12:21:01.604Z,18.70
2018-05-18T12:23:29.776Z,18.33
2018-05-18T12:25:57.305Z,17.30
2018-05-18T12:28:25.613Z,17.55
2018-05-18T12:30:53.171Z,18.80
2018-05-18T12:33:20.733Z,16.12
2018-05-18T12:35:48.267Z,18.03
2018-05-18T12:38:16.674Z,17.37
2018-05-18T12:40:44.130Z,18.10
2018-05-18T12:43:12.040Z,17.93
2018-05-18T12:45:39.983Z,17.50
2018-05-18T12:48:07.513Z,17.42
2018-05-18T12:50:35.047Z,18.50
2018-05-18T12:53:02.767Z,19.05
2018-05-18T12:55:30.354Z,20.40
2018-05-18T12:57:57.920Z,19.63
2018-05-18T13:00:26.263Z,18.65
2018-05-18T13:02:53.834Z,18.80
2018-05-18T13:05:21.372Z,19.57
2018-05-18T13:07:49.560Z,17.00
2018-05-18T13:10:17.091Z,18.83
2018-05-18T13:12:44.669Z,19.10
2018-05-18T13:15:12.284Z,18.03
2018-05-18T13:17:39.839Z,20.33
2018-05-18T13:20:07.371Z,18.50
2018-05-18T13:22:34.927Z,19.47
2018-05-18T13:25:02.477Z,21.63
2018-05-18T13:27:30.011Z,22.37
2018-05-18T13:29:58.286Z,19.77
2018-05-18T13:32:25.808Z,20.67
2018-05-18T13:34:53.347Z,18.50
2018-05-18T13:37:20.899Z,17.60
2018-05-18T13:39:48.427Z,17.73
2018-05-18T13:42:19.426Z,19.26
2018-05-18T13:44:47.785Z,18.27
2018-05-18T13:47:16.286Z,19.27
2018-05-18T13:49:43.812Z,20.00
2018-05-18T13:52:11.947Z,18.50
2018-05-18T13:54:39.502Z,19.27
2018-05-18T13:57:07.081Z,18.87
2018-05-18T13:59:34.639Z,17.90
2018-05-18T14:02:02.351Z,17.90
2018-05-18T14:04:29.911Z,18.90
2018-05-18T14:06:57.737Z,18.40
2018-05-18T14:09:26.111Z,18.50
2018-05-18T14:11:53.645Z,19.00
2018-05-18T14:14:21.722Z,18.07
2018-05-18T14:16:49.411Z,18.33
2018-05-18T14:19:17.126Z,18.87
2018-05-18T14:21:44.676Z,20.60
2018-05-18T14:24:12.232Z,17.87
2018-05-18T14:26:39.829Z,17.83
2018-05-18T14:29:07.375Z,21.53
2018-05-18T14:31:34.896Z,19.07
2018-05-18T14:34:02.541Z,19.20
2018-05-18T14:36:30.466Z,16.90
2018-05-18T14:38:57.995Z,18.90
2018-05-18T14:41:25.539Z,17.12
2018-05-18T14:43:53.111Z,16.10
2018-05-18T14:46:20.855Z,14.43
2018-05-18T14:48:49.135Z,14.57
2018-05-18T14:51:16.736Z,16.97
2018-05-18T14:53:44.986Z,15.70
2018-05-18T14:56:12.519Z,15.38
2018-05-18T14:58:41.266Z,15.63
2018-05-18T15:01:08.798Z,15.70
2018-05-18T15:03:36.326Z,16.20
2018-05-18T15:06:03.894Z,14.70
2018-05-18T15:08:32.179Z,16.03
2018-05-18T15:10:59.810Z,14.80
2018-05-18T15:13:27.355Z,15.75
2018-05-18T15:15:55.734Z,13.93
2018-05-18T15:18:24.156Z,12.93
2018-05-18T15:20:52.498Z,15.30
2018-05-18T15:23:20.182Z,15.07
2018-05-18T15:25:48.478Z,15.50
2018-05-18T15:28:18.378Z,14.87
2018-05-18T15:30:45.979Z,14.60
2018-05-18T15:33:24.526Z,15.50
2018-05-18T15:38:32.922Z,15.30
2018-05-18T15:41:01.177Z,14.20
2018-05-18T15:43:28.743Z,13.05
2018-05-18T15:45:56.320Z,13.97
2018-05-18T15:48:24.108Z,12.70
2018-05-18T15:50:51.648Z,14.83
2018-05-18T15:53:19.224Z,15.90
2018-05-18T15:55:46.747Z,15.57
2018-05-18T15:58:16.335Z,13.45
2018-05-18T16:00:45.302Z,14.20
2018-05-18T16:03:25.024Z,12.52
2018-05-18T16:14:33.565Z,13.68
2018-05-18T16:17:01.175Z,13.37
2018-05-18T16:19:28.800Z,14.00
2018-05-18T16:21:56.800Z,14.50
2018-05-18T16:24:24.331Z,12.63
2018-05-18T16:26:51.860Z,13.70
2018-05-18T16:29:20.195Z,15.40
2018-05-18T16:31:47.719Z,14.70
2018-05-18T16:34:17.327Z,13.73
2018-05-18T16:36:44.907Z,14.80
2018-05-18T16:39:12.460Z,13.82
2018-05-18T16:41:39.986Z,13.20
2018-05-18T16:44:07.628Z,13.25
2018-05-18T16:46:35.280Z,14.67
2018-05-18T16:49:03.600Z,14.00
2018-05-18T16:51:31.150Z,14.43
2018-05-18T16:53:58.678Z,15.23
2018-05-18T16:56:26.960Z,15.60
2018-05-18T16:58:55.478Z,15.15
2018-05-18T17:01:23.816Z,15.07
2018-05-18T17:03:51.363Z,15.57
2018-05-18T17:06:19.220Z,15.98
2018-05-18T17:08:46.747Z,15.10
2018-05-18T17:11:15.593Z,13.40
2018-05-18T17:13:43.181Z,12.63
2018-05-18T17:16:10.851Z,13.37
2018-05-18T17:18:38.391Z,13.32
2018-05-18T17:21:05.951Z,13.37
2018-05-18T17:23:33.470Z,14.82
2018-05-18T17:26:01.774Z,13.47
2018-05-18T17:28:29.638Z,15.60
2018-05-18T17:30:57.157Z,14.10
2018-05-18T17:33:24.722Z,15.68
2018-05-18T17:35:53.047Z,14.30
2018-05-18T17:38:20.567Z,14.23
2018-05-18T17:40:48.090Z,14.00
2018-05-18T17:43:16.504Z,14.90
2018-05-18T17:45:44.814Z,13.80
2018-05-18T17:48:12.345Z,13.20
2018-05-18T17:50:40.087Z,13.80
2018-05-18T17:53:07.607Z,12.77
2018-05-18T17:55:35.134Z,12.80
2018-05-18T17:58:02.694Z,14.63
2018-05-18T18:00:30.219Z,15.18
2018-05-18T18:02:57.734Z,14.17
2018-05-18T18:05:25.382Z,13.83
2018-05-18T18:07:52.936Z,14.33
2018-05-18T18:10:20.394Z,13.23
2018-05-18T18:12:48.500Z,12.90
2018-05-18T18:15:16.540Z,13.80
2018-05-18T18:17:44.059Z,14.23
2018-05-18T18:20:11.636Z,13.43
2018-05-18T18:22:39.709Z,13.67
2018-05-18T18:25:07.263Z,14.23
2018-05-18T18:27:35.726Z,13.70
2018-05-18T18:30:03.366Z,13.40
2018-05-18T18:32:30.888Z,14.23
2018-05-18T18:34:58.572Z,13.37
2018-05-18T18:37:26.109Z,12.50
2018-05-18T18:39:53.694Z,13.27
2018-05-18T18:42:21.249Z,13.43
2018-05-18T18:44:48.770Z,13.10
2018-05-18T18:47:16.555Z,13.03
2018-05-18T18:49:44.186Z,16.20
2018-05-18T18:52:12.028Z,21.57
2018-05-18T18:54:39.493Z,23.23
2018-05-18T18:57:08.298Z,23.27
2018-05-18T18:59:36.590Z,22.93
2018-05-18T19:02:04.124Z,23.50
2018-05-18T19:04:31.671Z,23.55
2018-05-18T19:07:00.016Z,21.80
2018-05-18T19:09:27.557Z,20.90
2018-05-18T19:11:55.111Z,21.30
2018-05-18T19:14:22.635Z,22.07
2018-05-18T19:16:50.973Z,21.80
2018-05-18T19:19:18.860Z,18.73
2018-05-18T19:21:46.452Z,20.73
2018-05-18T19:24:15.527Z,21.12
2018-05-18T19:26:43.070Z,20.80
2018-05-18T19:29:10.672Z,22.00
2018-05-18T19:31:38.195Z,23.20
2018-05-18T19:34:05.745Z,23.07
2018-05-18T19:36:33.299Z,21.60
2018-05-18T19:41:34.863Z,22.90
2018-05-18T19:44:02.416Z,23.20
2018-05-18T19:46:29.995Z,22.20
2018-05-18T19:48:57.596Z,23.10
2018-05-18T19:51:25.126Z,22.40
2018-05-18T19:53:53.003Z,21.87
2018-05-18T19:56:20.571Z,21.87
2018-05-18T19:58:48.892Z,22.87
2018-05-18T20:01:16.479Z,21.90
2018-05-18T20:03:45.568Z,21.37
2018-05-18T20:06:24.455Z,23.38
2018-05-18T20:11:25.899Z,24.17
2018-05-18T20:13:53.431Z,24.27
2018-05-18T20:16:21.741Z,25.30
2018-05-18T20:21:23.213Z,25.83
2018-05-18T20:23:51.246Z,26.00
2018-05-18T20:26:19.545Z,24.77
2018-05-18T20:28:47.067Z,25.03
2018-05-18T20:31:16.448Z,24.23
2018-05-18T20:33:43.967Z,24.60
2018-05-18T20:36:11.535Z,24.73
2018-05-18T20:38:39.403Z,24.43
2018-05-18T20:41:06.944Z,24.10
2018-05-18T20:43:34.500Z,26.17
2018-05-18T20:46:02.051Z,26.87
2018-05-18T20:48:30.361Z,22.67
2018-05-18T20:50:57.911Z,24.77
2018-05-18T20:53:25.500Z,24.73
2018-05-18T20:55:53.245Z,23.90
2018-05-18T20:58:20.772Z,26.23
2018-05-18T21:00:49.597Z,25.43
2018-05-18T21:03:17.116Z,25.30
2018-05-18T21:05:45.402Z,27.90
2018-05-18T21:08:25.500Z,24.02
2018-05-18T21:23:50.782Z,26.87
2018-05-18T21:26:18.336Z,28.47
2018-05-18T21:28:46.031Z,27.30
2018-05-18T21:31:33.927Z,28.07
2018-05-18T21:34:01.447Z,27.17
2018-05-18T21:36:30.451Z,28.30
2018-05-18T21:38:58.989Z,27.20
2018-05-18T21:41:26.531Z,28.30
2018-05-18T21:43:54.046Z,25.40
2018-05-18T21:46:22.359Z,23.05
2018-05-18T21:48:49.889Z,23.50
2018-05-18T21:51:17.421Z,22.70
2018-05-18T21:53:44.971Z,22.03
2018-05-18T21:56:12.847Z,20.67
2018-05-18T21:58:40.455Z,20.40
2018-05-18T22:01:08.631Z,22.20
2018-05-18T22:03:36.159Z,22.00
2018-05-18T22:06:03.687Z,21.00
2018-05-18T22:08:31.228Z,23.93
2018-05-18T22:10:58.771Z,21.43
2018-05-18T22:13:26.305Z,23.00
2018-05-18T22:15:53.862Z,23.13
2018-05-18T22:18:21.391Z,21.65
2018-05-18T22:20:48.917Z,23.50
2018-05-18T22:23:17.783Z,21.17
2018-05-18T22:25:46.039Z,21.17
2018-05-18T22:28:25.801Z,22.50
2018-05-18T22:33:51.548Z,22.73
2018-05-18T22:36:19.160Z,22.30
2018-05-18T22:38:47.459Z,22.77
2018-05-18T22:41:15.663Z,23.17
2018-05-18T22:43:43.179Z,20.93
2018-05-18T22:46:11.467Z,20.00
2018-05-18T22:48:39.015Z,20.03
2018-05-18T22:51:06.584Z,19.58
2018-05-18T22:53:34.136Z,19.17
2018-05-18T22:56:01.696Z,19.90
2018-05-18T22:58:29.233Z,19.30
2018-05-18T23:00:56.751Z,18.67
2018-05-18T23:03:24.336Z,19.63
2018-05-18T23:05:51.854Z,18.83
2018-05-18T23:08:19.376Z,18.37
2018-05-18T23:10:47.696Z,18.80
2018-05-18T23:13:15.479Z,21.05
2018-05-18T23:15:43.025Z,19.23
2018-05-18T23:18:10.566Z,19.15
2018-05-18T23:20:38.091Z,18.93
2018-05-18T23:23:06.428Z,19.87
2018-05-18T23:25:34.618Z,19.23
2018-05-18T23:28:02.165Z,18.60
2018-05-18T23:30:29.693Z,20.20
2018-05-18T23:32:57.243Z,18.77
2018-05-18T23:35:24.763Z,20.83
2018-05-18T23:37:52.283Z,18.83
2018-05-18T23:40:19.834Z,19.87
2018-05-18T23:42:47.483Z,18.77
2018-05-18T23:45:17.171Z,20.60
2018-05-18T23:47:45.306Z,19.80
2018-05-18T23:50:13.771Z,20.90
2018-05-18T23:52:41.296Z,21.20
2018-05-18T23:55:08.843Z,20.67
2018-05-18T23:57:36.491Z,21.87
